sensor_id;sensor_type;location;lat;lon;timestamp;temperature;humidity
25550;DHT22;13444;50.562;7.262;2023-03-31T00:02:03;12.20;99.90
25550;DHT22;13444;50.562;7.262;2023-03-31T00:04:40;12.20;99.90
25550;DHT22;13444;50.562;7.262;2023-03-31T00:07:11;12.30;99.90
25550;DHT22;13444;50.562;7.262;2023-03-31T00:09:37;12.30;99.90
25550;DHT22;13444;50.562;7.262;2023-03-31T00:12:05;12.30;99.90
25550;DHT22;13444;50.562;7.262;2023-03-31T00:14:30;12.30;99.90
25550;DHT22;13444;50.562;7.262;2023-03-31T00:16:56;12.30;99.90
25550;DHT22;13444;50.562;7.262;2023-03-31T00:19:22;12.30;99.90
25550;DHT22;13444;50.562;7.262;2023-03-31T00:21:48;12.30;99.90
25550;DHT22;13444;50.562;7.262;2023-03-31T00:24:15;12.30;99.90
25550;DHT22;13444;50.562;7.262;2023-03-31T00:26:41;12.20;99.90
25550;DHT22;13444;50.562;7.262;2023-03-31T00:29:08;12.20;99.90
25550;DHT22;13444;50.562;7.262;2023-03-31T00:31:34;12.30;99.90
25550;DHT22;13444;50.562;7.262;2023-03-31T00:34:00;12.20;99.90
25550;DHT22;13444;50.562;7.262;2023-03-31T00:36:26;12.20;99.90
25550;DHT22;13444;50.562;7.262;2023-03-31T00:39:02;12.20;99.90
25550;DHT22;13444;50.562;7.262;2023-03-31T00:41:30;12.20;99.90
25550;DHT22;13444;50.562;7.262;2023-03-31T00:44:20;12.20;99.90
25550;DHT22;13444;50.562;7.262;2023-03-31T00:47:05;12.20;99.90
25550;DHT22;13444;50.562;7.262;2023-03-31T00:49:55;12.10;99.90
25550;DHT22;13444;50.562;7.262;2023-03-31T00:52:28;12.10;99.90
25550;DHT22;13444;50.562;7.262;2023-03-31T00:54:59;12.10;99.90
25550;DHT22;13444;50.562;7.262;2023-03-31T00:57:27;12.10;99.90
25550;DHT22;13444;50.562;7.262;2023-03-31T01:00:00;12.10;99.90
25550;DHT22;13444;50.562;7.262;2023-03-31T01:02:34;12.10;99.90
25550;DHT22;13444;50.562;7.262;2023-03-31T01:05:05;12.10;99.90
25550;DHT22;13444;50.562;7.262;2023-03-31T01:07:42;12.10;99.90
25550;DHT22;13444;50.562;7.262;2023-03-31T01:10:08;12.00;99.90
25550;DHT22;13444;50.562;7.262;2023-03-31T01:12:38;12.00;99.90
25550;DHT22;13444;50.562;7.262;2023-03-31T01:15:05;11.90;99.90
25550;DHT22;13444;50.562;7.262;2023-03-31T01:17:31;11.90;99.90
25550;DHT22;13444;50.562;7.262;2023-03-31T01:20:18;11.90;99.90
25550;DHT22;13444;50.562;7.262;2023-03-31T01:37:21;11.70;99.90
25550;DHT22;13444;50.562;7.262;2023-03-31T01:42:51;11.60;99.90
25550;DHT22;13444;50.562;7.262;2023-03-31T01:45:25;11.60;99.90
25550;DHT22;13444;50.562;7.262;2023-03-31T01:56:06;11.70;99.90
25550;DHT22;13444;50.562;7.262;2023-03-31T01:58:37;11.70;99.90
25550;DHT22;13444;50.562;7.262;2023-03-31T02:01:30;11.70;99.90
25550;DHT22;13444;50.562;7.262;2023-03-31T02:04:03;11.70;99.90
25550;DHT22;13444;50.562;7.262;2023-03-31T02:06:35;11.80;99.90
25550;DHT22;13444;50.562;7.262;2023-03-31T02:09:09;11.70;99.90
25550;DHT22;13444;50.562;7.262;2023-03-31T02:11:36;11.70;99.90
25550;DHT22;13444;50.562;7.262;2023-03-31T02:14:03;11.80;99.90
25550;DHT22;13444;50.562;7.262;2023-03-31T02:16:32;11.80;99.90
25550;DHT22;13444;50.562;7.262;2023-03-31T02:19:00;11.80;99.90
25550;DHT22;13444;50.562;7.262;2023-03-31T02:21:34;11.90;99.90
25550;DHT22;13444;50.562;7.262;2023-03-31T02:24:06;11.90;99.90
25550;DHT22;13444;50.562;7.262;2023-03-31T02:26:47;11.80;99.90
25550;DHT22;13444;50.562;7.262;2023-03-31T02:29:16;11.80;99.90
25550;DHT22;13444;50.562;7.262;2023-03-31T02:32:00;11.80;99.90
25550;DHT22;13444;50.562;7.262;2023-03-31T02:34:28;11.80;99.90
25550;DHT22;13444;50.562;7.262;2023-03-31T02:36:54;11.70;99.90
25550;DHT22;13444;50.562;7.262;2023-03-31T02:39:29;11.70;99.90
25550;DHT22;13444;50.562;7.262;2023-03-31T02:41:57;11.70;99.90
25550;DHT22;13444;50.562;7.262;2023-03-31T02:44:23;11.70;99.90
25550;DHT22;13444;50.562;7.262;2023-03-31T02:46:49;11.70;99.90
25550;DHT22;13444;50.562;7.262;2023-03-31T02:49:15;11.70;99.90
25550;DHT22;13444;50.562;7.262;2023-03-31T02:55:09;11.70;99.90
25550;DHT22;13444;50.562;7.262;2023-03-31T03:03:12;11.70;99.90
25550;DHT22;13444;50.562;7.262;2023-03-31T03:09:22;11.60;99.90
25550;DHT22;13444;50.562;7.262;2023-03-31T03:11:25;11.60;99.90
25550;DHT22;13444;50.562;7.262;2023-03-31T03:14:30;11.60;99.90
25550;DHT22;13444;50.562;7.262;2023-03-31T03:17:09;11.60;99.90
25550;DHT22;13444;50.562;7.262;2023-03-31T03:19:36;11.60;99.90
25550;DHT22;13444;50.562;7.262;2023-03-31T03:22:02;11.60;99.90
25550;DHT22;13444;50.562;7.262;2023-03-31T03:24:27;11.60;99.90
25550;DHT22;13444;50.562;7.262;2023-03-31T03:26:55;11.60;99.90
25550;DHT22;13444;50.562;7.262;2023-03-31T03:29:20;11.60;99.90
25550;DHT22;13444;50.562;7.262;2023-03-31T03:31:46;11.60;99.90
25550;DHT22;13444;50.562;7.262;2023-03-31T03:34:12;11.60;99.90
25550;DHT22;13444;50.562;7.262;2023-03-31T03:36:38;11.60;99.90
25550;DHT22;13444;50.562;7.262;2023-03-31T03:39:05;11.60;99.90
25550;DHT22;13444;50.562;7.262;2023-03-31T03:41:32;11.50;99.90
25550;DHT22;13444;50.562;7.262;2023-03-31T03:43:58;11.50;99.90
25550;DHT22;13444;50.562;7.262;2023-03-31T03:46:24;11.60;99.90
25550;DHT22;13444;50.562;7.262;2023-03-31T03:48:50;11.60;99.90
25550;DHT22;13444;50.562;7.262;2023-03-31T03:51:16;11.60;99.90
25550;DHT22;13444;50.562;7.262;2023-03-31T03:53:41;11.60;99.90
25550;DHT22;13444;50.562;7.262;2023-03-31T03:56:07;11.70;99.90
25550;DHT22;13444;50.562;7.262;2023-03-31T03:58:33;11.70;99.90
25550;DHT22;13444;50.562;7.262;2023-03-31T04:00:58;11.70;99.90
25550;DHT22;13444;50.562;7.262;2023-03-31T04:03:24;11.70;99.90
25550;DHT22;13444;50.562;7.262;2023-03-31T04:05:50;11.70;99.90
25550;DHT22;13444;50.562;7.262;2023-03-31T04:08:16;11.60;99.90
25550;DHT22;13444;50.562;7.262;2023-03-31T04:10:47;11.60;99.90
25550;DHT22;13444;50.562;7.262;2023-03-31T04:13:17;11.60;99.90
25550;DHT22;13444;50.562;7.262;2023-03-31T04:15:43;11.60;99.90
25550;DHT22;13444;50.562;7.262;2023-03-31T04:18:09;11.70;99.90
25550;DHT22;13444;50.562;7.262;2023-03-31T04:20:45;11.70;99.90
25550;DHT22;13444;50.562;7.262;2023-03-31T04:23:19;11.60;99.90
25550;DHT22;13444;50.562;7.262;2023-03-31T04:25:48;11.70;99.90
25550;DHT22;13444;50.562;7.262;2023-03-31T04:28:14;11.60;99.90
25550;DHT22;13444;50.562;7.262;2023-03-31T04:30:40;11.60;99.90
25550;DHT22;13444;50.562;7.262;2023-03-31T04:33:05;11.60;99.90
25550;DHT22;13444;50.562;7.262;2023-03-31T04:35:31;11.60;99.90
25550;DHT22;13444;50.562;7.262;2023-03-31T04:38:14;11.60;99.90
25550;DHT22;13444;50.562;7.262;2023-03-31T04:40:44;11.50;99.90
25550;DHT22;13444;50.562;7.262;2023-03-31T04:43:09;11.50;99.90
25550;DHT22;13444;50.562;7.262;2023-03-31T04:45:35;11.40;99.90
25550;DHT22;13444;50.562;7.262;2023-03-31T04:48:00;11.40;99.90
25550;DHT22;13444;50.562;7.262;2023-03-31T04:50:26;11.40;99.90
25550;DHT22;13444;50.562;7.262;2023-03-31T04:52:52;11.30;99.90
25550;DHT22;13444;50.562;7.262;2023-03-31T04:55:18;11.30;99.90
25550;DHT22;13444;50.562;7.262;2023-03-31T04:57:43;11.20;99.90
25550;DHT22;13444;50.562;7.262;2023-03-31T05:00:09;11.20;99.90
25550;DHT22;13444;50.562;7.262;2023-03-31T05:02:35;11.20;99.90
25550;DHT22;13444;50.562;7.262;2023-03-31T05:05:01;11.20;99.90
25550;DHT22;13444;50.562;7.262;2023-03-31T05:07:26;11.10;99.90
25550;DHT22;13444;50.562;7.262;2023-03-31T05:09:52;11.10;99.90
25550;DHT22;13444;50.562;7.262;2023-03-31T05:12:17;11.10;99.90
25550;DHT22;13444;50.562;7.262;2023-03-31T05:14:43;11.10;99.90
25550;DHT22;13444;50.562;7.262;2023-03-31T05:17:08;11.10;99.90
25550;DHT22;13444;50.562;7.262;2023-03-31T05:19:34;11.10;99.90
25550;DHT22;13444;50.562;7.262;2023-03-31T05:21:59;11.00;99.90
25550;DHT22;13444;50.562;7.262;2023-03-31T05:24:25;11.00;99.90
25550;DHT22;13444;50.562;7.262;2023-03-31T05:26:53;11.00;99.90
25550;DHT22;13444;50.562;7.262;2023-03-31T05:29:18;11.00;99.90
25550;DHT22;13444;50.562;7.262;2023-03-31T05:31:45;11.10;99.90
25550;DHT22;13444;50.562;7.262;2023-03-31T05:34:10;11.00;99.90
25550;DHT22;13444;50.562;7.262;2023-03-31T05:36:36;11.10;99.90
25550;DHT22;13444;50.562;7.262;2023-03-31T05:39:03;11.10;99.90
25550;DHT22;13444;50.562;7.262;2023-03-31T05:41:29;11.10;99.90
25550;DHT22;13444;50.562;7.262;2023-03-31T05:43:54;11.10;99.90
25550;DHT22;13444;50.562;7.262;2023-03-31T05:46:20;11.10;99.90
25550;DHT22;13444;50.562;7.262;2023-03-31T05:48:46;11.10;99.90
25550;DHT22;13444;50.562;7.262;2023-03-31T05:51:11;10.90;99.90
25550;DHT22;13444;50.562;7.262;2023-03-31T05:53:37;10.90;99.90
25550;DHT22;13444;50.562;7.262;2023-03-31T05:56:04;10.90;99.90
25550;DHT22;13444;50.562;7.262;2023-03-31T05:58:33;10.80;99.90
25550;DHT22;13444;50.562;7.262;2023-03-31T06:03:37;10.70;99.90
25550;DHT22;13444;50.562;7.262;2023-03-31T06:06:06;10.60;99.90
25550;DHT22;13444;50.562;7.262;2023-03-31T06:08:33;10.60;99.90
25550;DHT22;13444;50.562;7.262;2023-03-31T06:10:59;10.60;99.90
25550;DHT22;13444;50.562;7.262;2023-03-31T06:13:24;10.60;99.90
25550;DHT22;13444;50.562;7.262;2023-03-31T06:15:54;10.60;99.90
25550;DHT22;13444;50.562;7.262;2023-03-31T06:18:20;10.70;99.90
25550;DHT22;13444;50.562;7.262;2023-03-31T06:20:46;10.60;99.90
25550;DHT22;13444;50.562;7.262;2023-03-31T06:23:11;10.60;99.90
25550;DHT22;13444;50.562;7.262;2023-03-31T06:25:37;10.60;99.90
25550;DHT22;13444;50.562;7.262;2023-03-31T06:28:03;10.60;99.90
25550;DHT22;13444;50.562;7.262;2023-03-31T06:30:31;10.60;99.90
25550;DHT22;13444;50.562;7.262;2023-03-31T06:32:56;10.60;99.90
25550;DHT22;13444;50.562;7.262;2023-03-31T06:35:22;10.60;99.90
25550;DHT22;13444;50.562;7.262;2023-03-31T06:37:47;10.60;99.90
25550;DHT22;13444;50.562;7.262;2023-03-31T06:40:13;10.60;99.90
25550;DHT22;13444;50.562;7.262;2023-03-31T06:42:38;10.60;99.90
25550;DHT22;13444;50.562;7.262;2023-03-31T06:45:04;10.60;99.90
25550;DHT22;13444;50.562;7.262;2023-03-31T06:47:30;10.60;99.90
25550;DHT22;13444;50.562;7.262;2023-03-31T06:49:56;10.60;99.90
25550;DHT22;13444;50.562;7.262;2023-03-31T06:52:21;10.70;99.90
25550;DHT22;13444;50.562;7.262;2023-03-31T06:54:47;10.60;99.90
25550;DHT22;13444;50.562;7.262;2023-03-31T06:57:12;10.70;99.90
25550;DHT22;13444;50.562;7.262;2023-03-31T06:59:38;10.70;99.90
25550;DHT22;13444;50.562;7.262;2023-03-31T07:02:03;10.70;99.90
25550;DHT22;13444;50.562;7.262;2023-03-31T07:04:29;10.70;99.90
25550;DHT22;13444;50.562;7.262;2023-03-31T07:06:57;10.70;99.90
25550;DHT22;13444;50.562;7.262;2023-03-31T07:09:22;10.80;99.90
25550;DHT22;13444;50.562;7.262;2023-03-31T07:11:48;10.80;99.90
25550;DHT22;13444;50.562;7.262;2023-03-31T07:14:14;10.80;99.90
25550;DHT22;13444;50.562;7.262;2023-03-31T07:16:39;10.80;99.90
25550;DHT22;13444;50.562;7.262;2023-03-31T07:19:06;10.90;99.90
25550;DHT22;13444;50.562;7.262;2023-03-31T07:21:32;10.90;99.90
25550;DHT22;13444;50.562;7.262;2023-03-31T07:23:58;11.00;99.90
25550;DHT22;13444;50.562;7.262;2023-03-31T07:26:24;11.10;99.90
25550;DHT22;13444;50.562;7.262;2023-03-31T07:28:50;11.10;99.90
25550;DHT22;13444;50.562;7.262;2023-03-31T07:31:16;11.10;99.90
25550;DHT22;13444;50.562;7.262;2023-03-31T07:33:42;11.10;99.90
25550;DHT22;13444;50.562;7.262;2023-03-31T07:36:08;11.20;99.90
25550;DHT22;13444;50.562;7.262;2023-03-31T07:38:35;11.20;99.90
25550;DHT22;13444;50.562;7.262;2023-03-31T07:41:01;11.30;99.90
25550;DHT22;13444;50.562;7.262;2023-03-31T07:43:26;11.30;99.90
25550;DHT22;13444;50.562;7.262;2023-03-31T07:45:52;11.40;99.90
25550;DHT22;13444;50.562;7.262;2023-03-31T07:48:17;11.40;99.90
25550;DHT22;13444;50.562;7.262;2023-03-31T07:50:43;11.50;99.90
25550;DHT22;13444;50.562;7.262;2023-03-31T07:53:09;11.60;99.90
25550;DHT22;13444;50.562;7.262;2023-03-31T07:55:35;11.60;99.90
25550;DHT22;13444;50.562;7.262;2023-03-31T07:58:01;11.70;99.90
25550;DHT22;13444;50.562;7.262;2023-03-31T08:00:27;12.00;99.90
25550;DHT22;13444;50.562;7.262;2023-03-31T08:02:52;12.20;99.90
25550;DHT22;13444;50.562;7.262;2023-03-31T08:05:19;12.30;99.90
25550;DHT22;13444;50.562;7.262;2023-03-31T08:07:47;12.30;99.90
25550;DHT22;13444;50.562;7.262;2023-03-31T08:10:20;12.20;99.90
25550;DHT22;13444;50.562;7.262;2023-03-31T08:12:46;12.20;99.90
25550;DHT22;13444;50.562;7.262;2023-03-31T08:15:12;12.20;99.90
25550;DHT22;13444;50.562;7.262;2023-03-31T08:17:38;12.10;99.90
25550;DHT22;13444;50.562;7.262;2023-03-31T08:20:05;12.20;99.90
25550;DHT22;13444;50.562;7.262;2023-03-31T08:22:32;12.20;99.90
25550;DHT22;13444;50.562;7.262;2023-03-31T08:24:57;12.20;99.90
25550;DHT22;13444;50.562;7.262;2023-03-31T08:27:23;12.30;99.90
25550;DHT22;13444;50.562;7.262;2023-03-31T08:29:50;12.30;99.90
25550;DHT22;13444;50.562;7.262;2023-03-31T08:32:15;12.30;99.90
25550;DHT22;13444;50.562;7.262;2023-03-31T08:34:41;12.30;99.90
25550;DHT22;13444;50.562;7.262;2023-03-31T08:37:08;12.30;99.90
25550;DHT22;13444;50.562;7.262;2023-03-31T08:39:34;12.40;99.90
25550;DHT22;13444;50.562;7.262;2023-03-31T08:42:19;12.40;99.90
25550;DHT22;13444;50.562;7.262;2023-03-31T08:44:58;12.40;99.90
25550;DHT22;13444;50.562;7.262;2023-03-31T08:47:26;12.50;99.90
25550;DHT22;13444;50.562;7.262;2023-03-31T08:49:57;12.50;99.90
25550;DHT22;13444;50.562;7.262;2023-03-31T08:52:41;12.50;99.90
25550;DHT22;13444;50.562;7.262;2023-03-31T08:55:12;12.60;99.90
25550;DHT22;13444;50.562;7.262;2023-03-31T08:58:02;12.70;99.90
25550;DHT22;13444;50.562;7.262;2023-03-31T09:00:41;12.80;99.90
25550;DHT22;13444;50.562;7.262;2023-03-31T09:03:17;12.90;99.90
25550;DHT22;13444;50.562;7.262;2023-03-31T09:12:13;13.50;99.90
25550;DHT22;13444;50.562;7.262;2023-03-31T09:14:55;13.60;99.90
25550;DHT22;13444;50.562;7.262;2023-03-31T09:17:28;13.80;99.90
25550;DHT22;13444;50.562;7.262;2023-03-31T09:20:06;13.80;99.90
25550;DHT22;13444;50.562;7.262;2023-03-31T09:22:41;13.90;99.90
25550;DHT22;13444;50.562;7.262;2023-03-31T09:25:09;14.00;99.90
25550;DHT22;13444;50.562;7.262;2023-03-31T09:27:39;14.10;99.90
25550;DHT22;13444;50.562;7.262;2023-03-31T09:32:37;14.20;99.90
25550;DHT22;13444;50.562;7.262;2023-03-31T09:35:22;14.20;99.90
25550;DHT22;13444;50.562;7.262;2023-03-31T09:37:50;14.20;99.90
25550;DHT22;13444;50.562;7.262;2023-03-31T09:40:18;14.20;99.90
25550;DHT22;13444;50.562;7.262;2023-03-31T09:43:07;14.20;99.90
25550;DHT22;13444;50.562;7.262;2023-03-31T09:45:32;14.10;99.90
25550;DHT22;13444;50.562;7.262;2023-03-31T09:48:01;14.00;99.90
25550;DHT22;13444;50.562;7.262;2023-03-31T09:50:29;13.90;99.90
25550;DHT22;13444;50.562;7.262;2023-03-31T09:52:57;13.80;99.90
25550;DHT22;13444;50.562;7.262;2023-03-31T09:55:46;13.80;99.90
25550;DHT22;13444;50.562;7.262;2023-03-31T09:58:15;13.60;99.90
25550;DHT22;13444;50.562;7.262;2023-03-31T10:00:43;13.50;99.90
25550;DHT22;13444;50.562;7.262;2023-03-31T10:03:20;13.40;99.90
25550;DHT22;13444;50.562;7.262;2023-03-31T10:05:51;13.30;99.90
25550;DHT22;13444;50.562;7.262;2023-03-31T10:08:28;13.20;99.90
25550;DHT22;13444;50.562;7.262;2023-03-31T10:10:57;13.20;99.90
25550;DHT22;13444;50.562;7.262;2023-03-31T10:13:46;13.20;99.90
25550;DHT22;13444;50.562;7.262;2023-03-31T10:16:27;13.20;99.90
25550;DHT22;13444;50.562;7.262;2023-03-31T10:18:53;13.20;99.90
25550;DHT22;13444;50.562;7.262;2023-03-31T10:21:24;13.20;99.90
25550;DHT22;13444;50.562;7.262;2023-03-31T10:23:51;13.30;99.90
25550;DHT22;13444;50.562;7.262;2023-03-31T10:26:21;13.40;99.90
25550;DHT22;13444;50.562;7.262;2023-03-31T10:28:48;13.50;99.90
25550;DHT22;13444;50.562;7.262;2023-03-31T10:31:17;13.60;99.90
25550;DHT22;13444;50.562;7.262;2023-03-31T10:33:47;13.60;99.90
25550;DHT22;13444;50.562;7.262;2023-03-31T10:36:26;13.80;99.90
25550;DHT22;13444;50.562;7.262;2023-03-31T10:38:53;14.00;99.90
25550;DHT22;13444;50.562;7.262;2023-03-31T10:41:21;14.20;99.90
25550;DHT22;13444;50.562;7.262;2023-03-31T10:43:51;14.50;99.90
25550;DHT22;13444;50.562;7.262;2023-03-31T10:46:17;14.70;99.90
25550;DHT22;13444;50.562;7.262;2023-03-31T10:48:43;14.90;99.90
25550;DHT22;13444;50.562;7.262;2023-03-31T10:51:18;15.00;99.90
25550;DHT22;13444;50.562;7.262;2023-03-31T10:53:49;15.00;99.90
25550;DHT22;13444;50.562;7.262;2023-03-31T10:59:18;15.10;99.90
25550;DHT22;13444;50.562;7.262;2023-03-31T11:04:44;14.90;99.90
25550;DHT22;13444;50.562;7.262;2023-03-31T11:12:59;15.00;99.90
25550;DHT22;13444;50.562;7.262;2023-03-31T11:15:54;15.10;99.90
25550;DHT22;13444;50.562;7.262;2023-03-31T11:21:30;15.40;99.90
25550;DHT22;13444;50.562;7.262;2023-03-31T11:26:59;15.80;99.90
25550;DHT22;13444;50.562;7.262;2023-03-31T11:29:33;15.90;99.90
25550;DHT22;13444;50.562;7.262;2023-03-31T11:38:12;15.90;99.90
25550;DHT22;13444;50.562;7.262;2023-03-31T11:41:02;15.80;99.90
25550;DHT22;13444;50.562;7.262;2023-03-31T11:43:52;15.80;99.90
25550;DHT22;13444;50.562;7.262;2023-03-31T11:46:25;15.80;99.90
25550;DHT22;13444;50.562;7.262;2023-03-31T11:48:56;15.80;99.90
25550;DHT22;13444;50.562;7.262;2023-03-31T11:51:52;15.80;99.90
25550;DHT22;13444;50.562;7.262;2023-03-31T11:54:33;15.70;99.90
25550;DHT22;13444;50.562;7.262;2023-03-31T11:57:05;15.60;99.90
25550;DHT22;13444;50.562;7.262;2023-03-31T11:59:34;15.30;99.90
25550;DHT22;13444;50.562;7.262;2023-03-31T12:02:18;15.20;99.90
25550;DHT22;13444;50.562;7.262;2023-03-31T12:04:49;15.10;99.90
25550;DHT22;13444;50.562;7.262;2023-03-31T12:07:30;15.10;99.90
25550;DHT22;13444;50.562;7.262;2023-03-31T12:12:34;15.40;99.90
25550;DHT22;13444;50.562;7.262;2023-03-31T12:15:20;15.60;99.90
25550;DHT22;13444;50.562;7.262;2023-03-31T12:17:54;15.60;99.90
25550;DHT22;13444;50.562;7.262;2023-03-31T12:20:30;15.50;99.90
25550;DHT22;13444;50.562;7.262;2023-03-31T12:22:58;15.50;99.90
25550;DHT22;13444;50.562;7.262;2023-03-31T12:25:34;15.20;99.90
25550;DHT22;13444;50.562;7.262;2023-03-31T12:28:04;14.90;99.90
25550;DHT22;13444;50.562;7.262;2023-03-31T12:30:33;14.60;99.90
25550;DHT22;13444;50.562;7.262;2023-03-31T12:38:40;14.30;99.90
25550;DHT22;13444;50.562;7.262;2023-03-31T12:46:35;15.10;99.90
25550;DHT22;13444;50.562;7.262;2023-03-31T12:49:41;15.20;99.90
25550;DHT22;13444;50.562;7.262;2023-03-31T12:52:20;15.30;99.90
25550;DHT22;13444;50.562;7.262;2023-03-31T12:55:03;15.20;99.90
25550;DHT22;13444;50.562;7.262;2023-03-31T12:57:34;15.30;99.90
25550;DHT22;13444;50.562;7.262;2023-03-31T13:00:24;15.30;99.90
25550;DHT22;13444;50.562;7.262;2023-03-31T13:03:34;15.40;99.90
25550;DHT22;13444;50.562;7.262;2023-03-31T13:06:04;15.40;99.90
25550;DHT22;13444;50.562;7.262;2023-03-31T13:11:15;15.40;99.90
25550;DHT22;13444;50.562;7.262;2023-03-31T13:13:50;15.40;99.90
25550;DHT22;13444;50.562;7.262;2023-03-31T13:16:18;15.50;99.90
25550;DHT22;13444;50.562;7.262;2023-03-31T13:18:50;15.60;99.90
25550;DHT22;13444;50.562;7.262;2023-03-31T13:21:15;15.60;99.90
25550;DHT22;13444;50.562;7.262;2023-03-31T13:23:44;15.60;99.90
25550;DHT22;13444;50.562;7.262;2023-03-31T13:48:33;15.00;99.90
25550;DHT22;13444;50.562;7.262;2023-03-31T13:57:04;15.10;99.90
25550;DHT22;13444;50.562;7.262;2023-03-31T14:00:02;15.10;99.90
25550;DHT22;13444;50.562;7.262;2023-03-31T14:05:41;15.10;99.90
25550;DHT22;13444;50.562;7.262;2023-03-31T14:08:19;15.10;99.90
25550;DHT22;13444;50.562;7.262;2023-03-31T14:10:49;15.00;99.90
25550;DHT22;13444;50.562;7.262;2023-03-31T14:13:18;14.70;99.90
25550;DHT22;13444;50.562;7.262;2023-03-31T14:15:57;14.20;99.90
25550;DHT22;13444;50.562;7.262;2023-03-31T14:18:24;14.00;99.90
25550;DHT22;13444;50.562;7.262;2023-03-31T14:21:20;13.80;99.90
25550;DHT22;13444;50.562;7.262;2023-03-31T14:29:34;13.60;99.90
25550;DHT22;13444;50.562;7.262;2023-03-31T14:32:22;13.60;99.90
25550;DHT22;13444;50.562;7.262;2023-03-31T14:37:51;13.70;99.90
25550;DHT22;13444;50.562;7.262;2023-03-31T14:40:18;13.70;99.90
25550;DHT22;13444;50.562;7.262;2023-03-31T14:42:44;13.80;99.90
25550;DHT22;13444;50.562;7.262;2023-03-31T14:45:22;13.90;99.90
25550;DHT22;13444;50.562;7.262;2023-03-31T14:47:57;13.90;99.90
25550;DHT22;13444;50.562;7.262;2023-03-31T14:50:34;14.00;99.90
25550;DHT22;13444;50.562;7.262;2023-03-31T14:53:00;14.00;99.90
25550;DHT22;13444;50.562;7.262;2023-03-31T14:55:28;14.10;99.90
25550;DHT22;13444;50.562;7.262;2023-03-31T14:57:57;14.10;99.90
25550;DHT22;13444;50.562;7.262;2023-03-31T15:00:27;14.20;99.90
25550;DHT22;13444;50.562;7.262;2023-03-31T15:02:53;14.30;99.90
25550;DHT22;13444;50.562;7.262;2023-03-31T15:07:54;14.50;99.90
25550;DHT22;13444;50.562;7.262;2023-03-31T15:10:21;14.50;99.90
25550;DHT22;13444;50.562;7.262;2023-03-31T15:12:48;14.60;99.90
25550;DHT22;13444;50.562;7.262;2023-03-31T15:15:17;14.60;99.90
25550;DHT22;13444;50.562;7.262;2023-03-31T15:17:45;14.70;99.90
25550;DHT22;13444;50.562;7.262;2023-03-31T15:22:56;14.80;99.90
25550;DHT22;13444;50.562;7.262;2023-03-31T15:25:33;14.80;99.90
25550;DHT22;13444;50.562;7.262;2023-03-31T15:28:05;14.90;99.90
25550;DHT22;13444;50.562;7.262;2023-03-31T15:30:31;15.00;99.90
25550;DHT22;13444;50.562;7.262;2023-03-31T15:32:58;15.00;99.90
25550;DHT22;13444;50.562;7.262;2023-03-31T15:35:30;15.00;99.90
25550;DHT22;13444;50.562;7.262;2023-03-31T15:37:58;15.00;99.90
25550;DHT22;13444;50.562;7.262;2023-03-31T15:40:27;15.10;99.90
25550;DHT22;13444;50.562;7.262;2023-03-31T15:42:56;15.10;99.90
25550;DHT22;13444;50.562;7.262;2023-03-31T15:45:44;15.10;99.90
25550;DHT22;13444;50.562;7.262;2023-03-31T15:48:20;15.10;99.90
25550;DHT22;13444;50.562;7.262;2023-03-31T15:50:46;15.00;99.90
25550;DHT22;13444;50.562;7.262;2023-03-31T15:53:28;15.00;99.90
25550;DHT22;13444;50.562;7.262;2023-03-31T15:55:56;15.00;99.90
25550;DHT22;13444;50.562;7.262;2023-03-31T15:58:44;15.00;99.90
25550;DHT22;13444;50.562;7.262;2023-03-31T16:01:10;14.90;99.90
25550;DHT22;13444;50.562;7.262;2023-03-31T16:03:40;14.90;99.90
25550;DHT22;13444;50.562;7.262;2023-03-31T16:09:03;14.80;99.90
25550;DHT22;13444;50.562;7.262;2023-03-31T16:11:57;14.80;99.90
25550;DHT22;13444;50.562;7.262;2023-03-31T16:14:35;14.80;99.90
25550;DHT22;13444;50.562;7.262;2023-03-31T16:17:09;14.70;99.90
25550;DHT22;13444;50.562;7.262;2023-03-31T16:19:49;14.60;99.90
25550;DHT22;13444;50.562;7.262;2023-03-31T16:22:22;14.50;99.90
25550;DHT22;13444;50.562;7.262;2023-03-31T16:24:48;14.40;99.90
25550;DHT22;13444;50.562;7.262;2023-03-31T16:27:15;14.30;99.90
25550;DHT22;13444;50.562;7.262;2023-03-31T16:29:40;14.30;99.90
25550;DHT22;13444;50.562;7.262;2023-03-31T16:32:13;14.30;99.90
25550;DHT22;13444;50.562;7.262;2023-03-31T16:34:52;14.20;99.90
25550;DHT22;13444;50.562;7.262;2023-03-31T16:37:17;14.20;99.90
25550;DHT22;13444;50.562;7.262;2023-03-31T16:39:43;14.20;99.90
25550;DHT22;13444;50.562;7.262;2023-03-31T16:42:08;14.20;99.90
25550;DHT22;13444;50.562;7.262;2023-03-31T16:44:34;14.20;99.90
25550;DHT22;13444;50.562;7.262;2023-03-31T16:46:59;14.20;99.90
25550;DHT22;13444;50.562;7.262;2023-03-31T16:49:25;14.20;99.90
25550;DHT22;13444;50.562;7.262;2023-03-31T16:51:51;14.20;99.90
25550;DHT22;13444;50.562;7.262;2023-03-31T16:54:17;14.20;99.90
25550;DHT22;13444;50.562;7.262;2023-03-31T16:56:42;14.20;99.90
25550;DHT22;13444;50.562;7.262;2023-03-31T16:59:08;14.20;99.90
25550;DHT22;13444;50.562;7.262;2023-03-31T17:01:33;14.20;99.90
25550;DHT22;13444;50.562;7.262;2023-03-31T17:03:59;14.20;99.90
25550;DHT22;13444;50.562;7.262;2023-03-31T17:06:24;14.20;99.90
25550;DHT22;13444;50.562;7.262;2023-03-31T17:08:50;14.20;99.90
25550;DHT22;13444;50.562;7.262;2023-03-31T17:11:16;14.20;99.90
25550;DHT22;13444;50.562;7.262;2023-03-31T17:13:42;14.20;99.90
25550;DHT22;13444;50.562;7.262;2023-03-31T17:16:09;14.30;99.90
25550;DHT22;13444;50.562;7.262;2023-03-31T17:18:35;14.20;99.90
25550;DHT22;13444;50.562;7.262;2023-03-31T17:21:03;14.20;99.90
25550;DHT22;13444;50.562;7.262;2023-03-31T17:23:28;14.20;99.90
25550;DHT22;13444;50.562;7.262;2023-03-31T17:25:54;14.20;99.90
25550;DHT22;13444;50.562;7.262;2023-03-31T17:28:20;14.20;99.90
25550;DHT22;13444;50.562;7.262;2023-03-31T17:30:45;14.10;99.90
25550;DHT22;13444;50.562;7.262;2023-03-31T17:33:13;14.10;99.90
25550;DHT22;13444;50.562;7.262;2023-03-31T17:35:40;14.10;99.90
25550;DHT22;13444;50.562;7.262;2023-03-31T17:38:05;14.10;99.90
25550;DHT22;13444;50.562;7.262;2023-03-31T17:40:33;14.10;99.90
25550;DHT22;13444;50.562;7.262;2023-03-31T17:43:00;14.10;99.90
25550;DHT22;13444;50.562;7.262;2023-03-31T17:45:27;14.00;99.90
25550;DHT22;13444;50.562;7.262;2023-03-31T17:47:54;14.00;99.90
25550;DHT22;13444;50.562;7.262;2023-03-31T17:50:20;14.00;99.90
25550;DHT22;13444;50.562;7.262;2023-03-31T17:52:45;13.90;99.90
25550;DHT22;13444;50.562;7.262;2023-03-31T17:55:11;13.90;99.90
25550;DHT22;13444;50.562;7.262;2023-03-31T17:57:37;13.90;99.90
25550;DHT22;13444;50.562;7.262;2023-03-31T18:00:05;13.80;99.90
25550;DHT22;13444;50.562;7.262;2023-03-31T18:02:35;13.70;99.90
25550;DHT22;13444;50.562;7.262;2023-03-31T18:05:00;13.70;99.90
25550;DHT22;13444;50.562;7.262;2023-03-31T18:07:26;13.60;99.90